Time;durP1;ratioP1;P1;durP2;ratioP2;P2;SDS_P1;SDS_P2;PMS_P1;PMS_P2;Temp;Humidity;BMP_temperature;BMP_pressure;BME280_temperature;BME280_humidity;BME280_pressure;Samples;Min_cycle;Max_cycle;Signal;HPM_P1;HPM_P2
2022/10/08 00:00:12;;;;;;;59.85;56.80;;;;;;;17.63;72.08;101978.97;5015158;28;102671;-51
2022/10/08 00:02:41;;;;;;;61.40;58.25;;;;;;;17.62;71.60;101982.84;5015848;28;102329;-52
2022/10/08 00:05:08;;;;;;;65.53;62.13;;;;;;;17.62;72.10;101976.50;5013161;28;104013;-52
2022/10/08 00:07:35;;;;;;;60.30;57.25;;;;;;;17.62;72.06;101976.50;5006193;28;102133;-52
2022/10/08 00:10:05;;;;;;;60.78;57.70;;;;;;;17.62;71.69;101982.03;5004755;28;104821;-51
2022/10/08 00:12:31;;;;;;;60.35;57.17;;;;;;;17.62;72.08;101971.81;5008316;28;102372;-52
2022/10/08 00:14:58;;;;;;;57.90;55.03;;;;;;;17.63;71.73;101978.16;5007899;28;103954;-53
2022/10/08 00:17:25;;;;;;;59.65;56.58;;;;;;;17.63;71.68;101978.97;5011998;28;102591;-51
2022/10/08 00:19:56;;;;;;;62.47;59.25;;;;;;;17.62;72.19;101973.75;4998101;28;102452;-51
2022/10/08 00:22:24;;;;;;;59.75;56.45;;;;;;;17.62;71.95;101973.75;5014656;28;102340;-52
2022/10/08 00:24:52;;;;;;;57.35;54.35;;;;;;;17.62;71.99;101976.50;5012173;28;104149;-51
2022/10/08 00:27:22;;;;;;;56.77;53.93;;;;;;;17.62;71.95;101965.50;5014277;28;101968;-51
2022/10/08 00:29:50;;;;;;;56.95;54.08;;;;;;;17.63;71.90;101967.94;5006707;28;102108;-52
2022/10/08 00:32:20;;;;;;;56.43;53.50;;;;;;;17.61;72.26;101963.88;5012350;28;102332;-52
2022/10/08 00:34:46;;;;;;;57.55;54.70;;;;;;;17.62;71.90;101965.50;5007708;28;104112;-52
2022/10/08 00:37:15;;;;;;;60.58;57.50;;;;;;;17.60;72.15;101957.53;5003970;28;102623;-52
2022/10/08 00:39:43;;;;;;;58.63;55.70;;;;;;;17.61;71.98;101958.38;5014309;28;102291;-52
2022/10/08 00:42:11;;;;;;;59.67;56.67;;;;;;;17.62;71.90;101962.75;5012574;28;102084;-52
2022/10/08 00:44:54;;;;;;;59.88;56.85;;;;;;;17.62;72.12;101954.50;5007276;28;104255;-52
2022/10/08 00:47:30;;;;;;;57.60;54.63;;;;;;;17.61;71.81;101950.09;5002312;28;102184;-52
2022/10/08 00:50:00;;;;;;;59.97;56.95;;;;;;;17.62;71.99;101949.00;5009667;28;102188;-52
2022/10/08 00:52:33;;;;;;;61.10;57.92;;;;;;;17.62;71.86;101949.00;5007780;28;102649;-52
2022/10/08 00:55:05;;;;;;;61.63;58.50;;;;;;;17.63;72.41;101945.13;4999544;28;103923;-52
2022/10/08 00:57:33;;;;;;;54.35;51.33;;;;;;;17.61;71.91;101948.16;5013717;28;104625;-52
2022/10/08 01:00:02;;;;;;;61.30;58.20;;;;;;;17.63;71.96;101947.88;5013697;28;102329;-52
2022/10/08 01:02:29;;;;;;;60.75;57.58;;;;;;;17.62;72.41;101938.78;5004347;28;102242;-52
2022/10/08 01:04:56;;;;;;;66.50;63.15;;;;;;;17.63;72.20;101936.84;5013976;28;104005;-52
2022/10/08 01:07:29;;;;;;;63.20;60.05;;;;;;;17.62;71.89;101932.47;5011384;28;102437;-52
2022/10/08 01:10:09;;;;;;;57.80;54.95;;;;;;;17.63;72.29;101939.59;4996105;28;102171;-52
2022/10/08 01:12:47;;;;;;;64.13;60.92;;;;;;;17.61;72.28;101928.09;4999783;28;102538;-51
2022/10/08 01:15:34;;;;;;;53.88;51.15;;;;;;;17.62;72.35;101932.47;5001415;28;103965;-51
2022/10/08 01:18:09;;;;;;;58.10;55.08;;;;;;;17.62;72.05;101926.97;5011244;28;102299;-51
2022/10/08 01:20:44;;;;;;;56.17;53.00;;;;;;;17.62;72.31;101925.03;5003899;28;102354;-52
2022/10/08 01:23:32;;;;;;;57.28;54.33;;;;;;;17.62;72.12;101927.78;4999602;28;102669;-52
2022/10/08 01:26:15;;;;;;;52.42;49.67;;;;;;;17.61;72.18;101926.16;5013223;28;103914;-52
2022/10/08 01:28:49;;;;;;;58.22;55.28;;;;;;;17.62;72.20;101925.03;5013918;28;102309;-52
2022/10/08 01:31:21;;;;;;;58.17;55.22;;;;;;;17.62;71.97;101915.94;4995823;28;102263;-52
2022/10/08 01:33:53;;;;;;;60.00;56.85;;;;;;;17.61;72.02;101920.63;5002338;28;102114;-52
2022/10/08 01:36:23;;;;;;;58.10;55.13;;;;;;;17.62;71.93;101921.47;5015504;28;104030;-52
2022/10/08 01:38:53;;;;;;;58.17;55.22;;;;;;;17.61;72.36;101925.31;5013688;28;102210;-52
2022/10/08 01:41:23;;;;;;;58.40;55.40;;;;;;;17.61;72.14;101917.06;5011284;28;102671;-52
2022/10/08 01:43:59;;;;;;;53.42;50.65;;;;;;;17.61;72.13;101915.13;5015786;28;102374;-52
2022/10/08 01:46:28;;;;;;;59.92;56.88;;;;;;;17.62;72.10;101915.94;5011930;28;109173;-51
2022/10/08 01:49:01;;;;;;;58.15;55.10;;;;;;;17.62;72.24;101910.44;5011860;28;102218;-51
2022/10/08 01:51:32;;;;;;;59.75;56.72;;;;;;;17.61;71.89;101903.31;5012791;28;102209;-52
2022/10/08 01:54:03;;;;;;;57.83;54.90;;;;;;;17.60;71.92;101897.00;5010740;28;102108;-52
2022/10/08 01:56:32;;;;;;;57.83;54.92;;;;;;;17.61;72.19;101909.63;5014720;28;103895;-52
2022/10/08 01:59:02;;;;;;;61.35;58.22;;;;;;;17.61;71.98;101897.81;5015058;28;102145;-52
2022/10/08 02:01:37;;;;;;;55.80;52.92;;;;;;;17.60;71.87;101902.50;5013097;28;102314;-52
2022/10/08 02:06:55;;;;;;;55.53;52.67;;;;;;;17.60;72.06;101894.22;5009073;28;104045;-52
2022/10/08 02:09:26;;;;;;;57.53;54.65;;;;;;;17.60;72.04;101896.13;5011872;28;102085;-52
2022/10/08 02:11:53;;;;;;;56.17;53.25;;;;;;;17.59;72.19;101903.59;5007536;28;101986;-52
2022/10/08 02:14:25;;;;;;;58.42;55.53;;;;;;;17.60;72.36;101898.88;5010301;28;102691;-52
2022/10/08 02:17:00;;;;;;;63.78;60.55;;;;;;;17.59;71.97;101898.06;4996980;28;103983;-52
2022/10/08 02:19:35;;;;;;;57.45;54.58;;;;;;;17.59;72.13;101894.50;4999795;28;102419;-52
2022/10/08 02:22:06;;;;;;;57.83;54.80;;;;;;;17.60;71.87;101893.38;4997815;28;102171;-52
2022/10/08 02:24:39;;;;;;;59.63;56.58;;;;;;;17.60;71.77;101893.38;4995605;28;102355;-50
2022/10/08 02:27:10;;;;;;;61.05;57.97;;;;;;;17.60;71.63;101890.63;5004278;28;104364;-52
2022/10/08 02:29:42;;;;;;;63.30;60.05;;;;;;;17.59;72.39;101889.81;5014514;28;102269;-52
2022/10/08 02:32:15;;;;;;;63.80;60.63;;;;;;;17.60;72.32;101890.63;5014860;28;102528;-52
2022/10/08 02:34:53;;;;;;;56.75;53.90;;;;;;;17.59;71.88;101884.31;5015282;28;102197;-52
2022/10/08 02:37:23;;;;;;;57.58;54.67;;;;;;;17.59;72.12;101889.00;5003849;28;103740;-52
2022/10/08 02:39:56;;;;;;;57.38;54.47;;;;;;;17.58;71.95;101882.69;5008308;27;102170;-52
2022/10/08 02:42:26;;;;;;;65.90;62.58;;;;;;;17.60;72.37;101890.63;5016286;28;102256;-51
2022/10/08 02:45:00;;;;;;;63.40;60.20;;;;;;;17.59;72.12;101889.81;4999902;28;102248;-52
2022/10/08 02:47:31;;;;;;;59.58;56.38;;;;;;;17.60;72.10;101879.63;5018336;28;103958;-51
2022/10/08 02:50:02;;;;;;;62.70;59.53;;;;;;;17.58;72.12;101887.38;5017940;28;102055;-52
2022/10/08 02:52:38;;;;;;;64.15;60.85;;;;;;;17.59;72.16;101886.25;5014981;28;102256;-52
2022/10/08 02:55:17;;;;;;;59.38;56.40;;;;;;;17.58;71.94;101892.88;5005293;28;102288;-52
2022/10/08 02:57:50;;;;;;;57.95;55.10;;;;;;;17.58;71.88;101887.38;5017973;28;103934;-52
2022/10/08 03:00:19;;;;;;;56.97;54.03;;;;;;;17.58;72.21;101882.69;5016819;28;102717;-52
2022/10/08 03:02:51;;;;;;;;;;;;;;;17.58;71.83;101892.88;5008905;27;102300;-51
2022/10/08 03:05:18;;;;;;;48.03;45.58;;;;;;;17.58;72.22;101882.69;5019102;28;102448;-52
2022/10/08 03:07:49;;;;;;;51.27;48.60;;;;;;;17.58;72.32;101874.44;5005825;28;103870;-52
2022/10/08 03:10:18;;;;;;;56.42;53.55;;;;;;;17.58;71.97;101882.69;5017735;28;101944;-52
2022/10/08 03:12:49;;;;;;;53.78;51.10;;;;;;;17.58;72.22;101879.13;5017144;28;102210;-52
2022/10/08 03:15:15;;;;;;;59.33;56.33;;;;;;;17.58;71.99;101877.19;5017460;28;102807;-52
2022/10/08 03:17:46;;;;;;;59.03;56.08;;;;;;;17.58;72.23;101882.69;5008198;28;103946;-52
2022/10/08 03:20:13;;;;;;;59.80;56.70;;;;;;;17.58;71.85;101876.34;5016008;28;102202;-52
2022/10/08 03:22:40;;;;;;;60.28;57.05;;;;;;;17.58;72.04;101870.84;5014047;28;102567;-52
2022/10/08 03:25:06;;;;;;;60.25;57.03;;;;;;;17.57;72.10;101864.53;5003609;28;102157;-52
2022/10/08 03:27:34;;;;;;;66.30;62.92;;;;;;;17.58;71.80;101876.34;5015132;28;104107;-52
2022/10/08 03:30:01;;;;;;;60.63;57.47;;;;;;;17.57;71.92;101874.72;5017935;28;102164;-52
2022/10/08 03:32:29;;;;;;;;;;;;;;;17.58;72.17;101873.59;5018113;28;102409;-52
2022/10/08 03:34:57;;;;;;;44.25;42.03;;;;;;;17.57;71.95;101863.72;5017733;28;102488;-52
2022/10/08 03:37:23;;;;;;;54.83;52.05;;;;;;;17.57;72.08;101866.47;5016656;28;103870;-52
2022/10/08 03:39:50;;;;;;;56.67;53.80;;;;;;;17.57;72.20;101864.53;5008951;28;103475;-52
2022/10/08 03:42:16;;;;;;;59.58;56.60;;;;;;;17.57;71.97;101863.72;5015973;28;102234;-52
2022/10/08 03:44:43;;;;;;;65.13;61.88;;;;;;;17.56;72.13;101867.56;5001038;28;102214;-52
2022/10/08 03:47:10;;;;;;;57.50;54.55;;;;;;;17.56;72.51;101873.88;5005473;28;107989;-51
2022/10/08 03:49:36;;;;;;;61.58;58.53;;;;;;;17.56;72.46;101871.13;5009545;28;101996;-52
2022/10/08 03:52:04;;;;;;;62.53;59.38;;;;;;;17.59;72.53;101869.72;5011429;28;102451;-51
2022/10/08 03:54:33;;;;;;;57.63;54.60;;;;;;;17.58;72.30;101876.34;5016360;28;102212;-51
2022/10/08 03:56:59;;;;;;;59.25;56.10;;;;;;;17.58;72.05;101865.34;5017158;28;103945;-52
2022/10/08 03:59:26;;;;;;;59.15;56.15;;;;;;;17.57;72.31;101860.97;5016906;28;102339;-52
2022/10/08 04:01:53;;;;;;;63.50;60.17;;;;;;;17.57;71.98;101863.72;5012940;28;102745;-51
2022/10/08 04:04:19;;;;;;;65.28;61.83;;;;;;;17.56;72.53;101862.06;5015704;28;102862;-52
2022/10/08 04:06:47;;;;;;;63.37;60.13;;;;;;;17.56;72.38;101857.38;5006618;28;103851;-51
2022/10/08 04:09:15;;;;;;;60.33;57.22;;;;;;;17.56;72.08;101857.38;5016072;28;102377;-52
2022/10/08 04:11:42;;;;;;;63.20;60.00;;;;;;;17.57;72.07;101852.72;5016505;28;102307;-52
2022/10/08 04:14:08;;;;;;;64.65;61.33;;;;;;;17.57;72.30;101847.19;5015023;28;102206;-52
2022/10/08 04:16:35;;;;;;;62.60;59.45;;;;;;;17.57;72.17;101852.72;5000005;28;103833;-52
2022/10/08 04:19:01;;;;;;;64.65;61.40;;;;;;;17.56;72.36;101851.03;5014112;28;102239;-52
2022/10/08 04:21:30;;;;;;;63.78;60.53;;;;;;;17.56;72.47;101848.28;5011779;28;102365;-52
2022/10/08 04:23:57;;;;;;;69.82;66.28;;;;;;;17.56;72.34;101848.28;5013340;28;102227;-52
2022/10/08 04:26:25;;;;;;;61.58;58.38;;;;;;;17.57;72.30;101853.53;5007867;28;103894;-52
2022/10/08 04:28:53;;;;;;;61.13;58.08;;;;;;;17.57;72.47;101849.94;5016604;28;102245;-52
2022/10/08 04:31:22;;;;;;;64.28;60.97;;;;;;;17.56;72.11;101849.09;5015615;28;102340;-52
2022/10/08 04:33:50;;;;;;;63.75;60.53;;;;;;;17.57;72.29;101863.72;5007421;28;102324;-52
2022/10/08 04:36:18;;;;;;;59.90;56.80;;;;;;;17.56;72.03;101856.53;5008525;28;104235;-52
2022/10/08 04:38:46;;;;;;;65.85;62.38;;;;;;;17.57;71.92;101858.22;5003246;28;102293;-52
2022/10/08 04:41:14;;;;;;;63.45;60.28;;;;;;;17.57;72.38;101852.72;5001711;28;102352;-52
2022/10/08 04:43:44;;;;;;;62.25;59.03;;;;;;;17.57;72.33;101855.47;5009695;28;102171;-52
2022/10/08 04:46:13;;;;;;;65.72;62.25;;;;;;;17.54;71.81;101849.41;5004706;28;103947;-51
2022/10/08 04:48:45;;;;;;;65.00;61.67;;;;;;;17.55;72.16;101855.72;5003794;28;102013;-52
2022/10/08 04:51:12;;;;;;;60.50;57.40;;;;;;;17.56;72.32;101849.09;5002315;28;102751;-52
2022/10/08 04:53:39;;;;;;;64.97;61.65;;;;;;;17.56;72.47;101856.53;4999777;28;102421;-52
2022/10/08 04:56:08;;;;;;;70.70;67.07;;;;;;;17.56;72.14;101862.06;5005500;28;103856;-52
2022/10/08 04:58:35;;;;;;;;;;;;;;;17.56;72.12;101856.53;5006650;28;102587;-52
2022/10/08 05:01:03;;;;;;;42.28;40.03;;;;;;;17.56;72.18;101862.88;5001265;27;102510;-52
2022/10/08 05:03:30;;;;;;;54.58;51.78;;;;;;;17.56;72.03;101864.81;5001542;28;102574;-52
2022/10/08 05:05:57;;;;;;;59.50;56.42;;;;;;;17.56;72.08;101859.31;4996442;28;104335;-52
2022/10/08 05:08:23;;;;;;;58.13;55.08;;;;;;;17.57;72.53;101871.97;4996031;28;102004;-52
2022/10/08 05:10:49;;;;;;;62.83;59.70;;;;;;;17.56;72.20;101867.56;4999333;28;102821;-52
2022/10/08 05:13:17;;;;;;;61.05;57.92;;;;;;;17.56;72.50;101873.88;4998233;28;102471;-52
2022/10/08 05:15:43;;;;;;;61.30;58.17;;;;;;;17.56;72.02;101873.88;5014841;28;103951;-52
2022/10/08 05:18:11;;;;;;;57.65;54.63;;;;;;;17.56;72.05;101873.06;5013818;28;102156;-52
2022/10/08 05:20:39;;;;;;;62.13;59.00;;;;;;;17.56;71.93;101867.56;5011442;28;102848;-52
2022/10/08 05:23:05;;;;;;;62.78;59.63;;;;;;;17.55;72.34;101872.25;5000943;28;102629;-52
2022/10/08 05:25:33;;;;;;;59.40;56.40;;;;;;;17.56;72.03;101867.56;4997453;28;104085;-52
2022/10/08 05:28:00;;;;;;;65.65;62.25;;;;;;;17.54;72.33;101863.16;5009413;28;102279;-52
2022/10/08 05:30:26;;;;;;;62.13;58.67;;;;;;;17.56;72.01;101878.56;5003019;28;102135;-52
2022/10/08 05:32:53;;;;;;;62.75;59.50;;;;;;;17.56;72.42;101873.06;4997319;28;102260;-52
2022/10/08 05:35:21;;;;;;;67.40;63.92;;;;;;;17.56;72.06;101878.56;5010020;28;104045;-52
2022/10/08 05:37:47;;;;;;;59.80;56.72;;;;;;;17.55;72.43;101880.50;5005915;28;102692;-52
2022/10/08 05:40:14;;;;;;;62.53;59.30;;;;;;;17.56;72.08;101884.06;4992371;28;102366;-52
2022/10/08 05:42:40;;;;;;;65.35;61.95;;;;;;;17.56;71.95;101881.31;5002505;28;102231;-52
2022/10/08 05:45:08;;;;;;;65.60;62.30;;;;;;;17.54;72.02;101876.94;4997903;28;104109;-52
2022/10/08 05:47:34;;;;;;;59.55;56.47;;;;;;;17.54;71.86;101882.44;5003844;28;102358;-52
2022/10/08 05:50:01;;;;;;;67.80;64.25;;;;;;;17.54;72.18;101882.44;5002106;28;102455;-52
2022/10/08 05:52:28;;;;;;;63.85;60.55;;;;;;;17.54;72.16;101879.69;5009206;28;102885;-52
2022/10/08 05:54:55;;;;;;;66.85;63.50;;;;;;;17.55;71.81;101880.50;4997192;28;103911;-52
2022/10/08 05:57:21;;;;;;;65.55;62.28;;;;;;;17.56;71.98;101884.06;4992570;28;102290;-52
2022/10/08 05:59:48;;;;;;;61.33;58.20;;;;;;;17.54;72.17;101882.44;5000810;28;102312;-52
2022/10/08 06:02:16;;;;;;;63.53;60.27;;;;;;;17.55;71.93;101888.75;5001065;28;102310;-52
2022/10/08 06:04:43;;;;;;;63.80;60.50;;;;;;;17.55;71.99;101888.75;4993894;28;103958;-52
2022/10/08 06:07:09;;;;;;;69.07;65.57;;;;;;;17.55;72.25;101886.00;4993249;28;102392;-52
2022/10/08 06:09:38;;;;;;;65.82;62.17;;;;;;;17.54;72.24;101890.69;4999864;28;102496;-52
2022/10/08 06:12:05;;;;;;;64.63;61.33;;;;;;;17.54;72.11;101893.44;5012640;28;102070;-52
2022/10/08 06:14:32;;;;;;;63.37;60.07;;;;;;;17.54;72.18;101893.44;5001397;28;103907;-52
2022/10/08 06:16:58;;;;;;;56.85;53.92;;;;;;;17.54;72.50;101892.63;4994867;28;102319;-52
2022/10/08 06:19:28;;;;;;;67.07;63.65;;;;;;;17.53;71.89;101889.06;5002971;28;102035;-52
2022/10/08 06:21:55;;;;;;;64.75;61.38;;;;;;;17.53;71.81;101883.56;5005426;28;102435;-51
2022/10/08 06:24:21;;;;;;;63.05;59.88;;;;;;;17.54;71.81;101885.19;4994958;28;104714;-52
2022/10/08 06:26:49;;;;;;;67.05;63.60;;;;;;;17.54;71.75;101884.38;5002544;28;102780;-51
2022/10/08 06:29:17;;;;;;;68.93;65.38;;;;;;;17.53;72.09;101880.81;5000662;28;102245;-51
2022/10/08 06:31:45;;;;;;;56.97;54.05;;;;;;;17.53;72.07;101872.56;5005296;28;102656;-51
2022/10/08 06:34:12;;;;;;;66.70;63.17;;;;;;;17.53;71.80;101877.25;5010299;28;104123;-52
2022/10/08 06:36:39;;;;;;;65.63;62.28;;;;;;;17.53;72.23;101872.56;5001676;28;102231;-52
2022/10/08 06:39:09;;;;;;;67.40;63.92;;;;;;;17.53;71.86;101869.78;5005338;28;102670;-52
2022/10/08 06:41:36;;;;;;;68.60;65.07;;;;;;;17.55;72.00;101880.50;5000423;28;102450;-52
2022/10/08 06:44:05;;;;;;;66.03;62.47;;;;;;;17.54;71.98;101871.44;5007299;28;103893;-52
2022/10/08 06:46:32;;;;;;;66.75;63.20;;;;;;;17.55;71.77;101875.00;5004068;28;102173;-52
2022/10/08 06:49:00;;;;;;;68.82;65.22;;;;;;;17.56;72.05;101875.81;5008333;28;102036;-51
2022/10/08 06:51:27;;;;;;;67.03;63.55;;;;;;;17.56;71.99;101870.31;5015127;28;102217;-52
2022/10/08 06:53:55;;;;;;;64.78;61.17;;;;;;;17.56;71.65;101862.06;4996903;28;103835;-52
2022/10/08 06:56:23;;;;;;;65.13;61.55;;;;;;;17.56;71.58;101860.13;5014510;28;102252;-52
2022/10/08 06:58:50;;;;;;;61.05;57.88;;;;;;;17.56;71.75;101862.06;5009626;28;102153;-52
2022/10/08 07:01:20;;;;;;;65.38;61.90;;;;;;;17.56;71.71;101854.63;5008765;28;102387;-51
2022/10/08 07:03:49;;;;;;;63.88;60.53;;;;;;;17.57;71.69;101855.47;5009676;28;103899;-52
2022/10/08 07:06:17;;;;;;;70.65;66.90;;;;;;;17.58;71.21;101848.84;5003390;28;102008;-52
2022/10/08 07:08:44;;;;;;;71.45;67.68;;;;;;;17.57;71.01;101842.50;4994626;28;102301;-51
2022/10/08 07:11:13;;;;;;;73.03;69.28;;;;;;;17.59;71.56;101847.72;5008067;28;102244;-52
2022/10/08 07:13:41;;;;;;;74.60;70.53;;;;;;;17.60;71.54;101857.59;4998819;28;104079;-52
2022/10/08 07:16:10;;;;;;;71.77;67.87;;;;;;;17.60;71.25;101846.59;4996893;28;102312;-52
2022/10/08 07:18:39;;;;;;;61.53;58.28;;;;;;;17.61;71.26;101845.50;5014126;28;101962;-52
2022/10/08 07:21:06;;;;;;;61.40;58.15;;;;;;;17.62;70.98;101844.38;5015810;28;102322;-52
2022/10/08 07:23:33;;;;;;;74.25;70.38;;;;;;;17.62;71.05;101844.38;5001169;28;105064;-52
2022/10/08 07:26:02;;;;;;;67.57;64.03;;;;;;;17.63;71.22;101841.31;5003059;28;101973;-51
2022/10/08 07:28:31;;;;;;;70.20;66.45;;;;;;;17.63;71.20;101841.31;5015977;28;102559;-52
2022/10/08 07:31:03;;;;;;;67.40;63.75;;;;;;;17.64;71.42;101843.00;4999718;28;102068;-52
2022/10/08 07:33:29;;;;;;;73.35;69.30;;;;;;;17.65;71.09;101839.13;5013877;28;103991;-52
2022/10/08 07:36:05;;;;;;;73.20;69.32;;;;;;;17.66;71.39;101835.25;5012190;28;102017;-52
2022/10/08 07:38:31;;;;;;;69.72;65.95;;;;;;;17.66;71.26;101835.25;5009957;28;102317;-52
2022/10/08 07:40:58;;;;;;;74.70;70.60;;;;;;;17.68;71.05;101834.97;5016215;28;102321;-52
2022/10/08 07:43:25;;;;;;;76.72;72.57;;;;;;;17.68;71.06;101826.72;5004741;28;103983;-51
2022/10/08 07:45:52;;;;;;;75.50;71.32;;;;;;;17.69;71.30;101822.84;5017159;28;102358;-52
2022/10/08 07:48:18;;;;;;;70.68;66.90;;;;;;;17.70;70.92;101818.97;5016670;28;102548;-52
2022/10/08 07:50:45;;;;;;;82.95;78.47;;;;;;;17.71;70.83;101826.13;5011972;28;102594;-52
2022/10/08 07:53:13;;;;;;;76.30;72.22;;;;;;;17.71;71.11;101824.19;4997799;28;103879;-52
2022/10/08 07:55:40;;;;;;;72.70;68.70;;;;;;;17.73;70.89;101818.38;5011178;28;101919;-52
2022/10/08 07:58:06;;;;;;;76.50;72.55;;;;;;;17.74;70.98;101817.25;4996753;28;102001;-52
2022/10/08 08:00:33;;;;;;;76.03;71.97;;;;;;;17.73;71.04;101813.69;4997990;28;102209;-52
2022/10/08 08:02:59;;;;;;;74.60;70.65;;;;;;;17.75;71.01;101817.00;5007415;28;103819;-52
2022/10/08 08:05:25;;;;;;;75.20;71.15;;;;;;;17.77;71.27;101808.44;5004826;28;102287;-52
2022/10/08 08:07:52;;;;;;;76.80;72.75;;;;;;;17.78;71.14;101804.59;5014776;28;102337;-52
2022/10/08 08:10:20;;;;;;;72.80;68.72;;;;;;;17.77;70.92;101798.25;5017436;28;102819;-52
2022/10/08 08:12:46;;;;;;;74.78;70.65;;;;;;;17.79;70.89;101791.66;5010211;28;103792;-52
2022/10/08 08:15:13;;;;;;;78.28;74.03;;;;;;;17.80;70.83;101796.84;5016600;28;102435;-52
2022/10/08 08:17:42;;;;;;;82.13;77.63;;;;;;;17.81;70.97;101792.97;5005468;28;102188;-52
2022/10/08 08:20:09;;;;;;;79.50;75.28;;;;;;;17.80;71.28;101793.28;5005956;28;102111;-55
2022/10/08 08:22:35;;;;;;;74.30;70.30;;;;;;;17.82;71.26;101794.63;5004025;28;103704;-52
2022/10/08 08:25:04;;;;;;;71.67;67.63;;;;;;;17.83;70.95;101790.75;5010092;28;102429;-52
2022/10/08 08:27:33;;;;;;;81.78;77.18;;;;;;;17.84;71.10;101780.56;4995121;28;102331;-51
2022/10/08 08:29:59;;;;;;;79.80;75.45;;;;;;;17.85;71.13;101784.94;4981079;28;102430;-51
2022/10/08 08:32:25;;;;;;;76.75;72.50;;;;;;;17.86;71.15;101776.41;4996465;28;103900;-52
2022/10/08 08:34:52;;;;;;;84.35;79.72;;;;;;;17.87;70.79;101780.78;5004676;28;102209;-51
2022/10/08 08:37:18;;;;;;;80.03;75.70;;;;;;;17.86;71.17;101776.41;5000721;28;102085;-51
2022/10/08 08:39:45;;;;;;;80.47;76.20;;;;;;;17.87;70.77;101778.03;5017567;28;101962;-51
2022/10/08 08:42:32;;;;;;;83.35;78.88;;;;;;;17.88;70.74;101773.34;5007591;28;103900;-51
2022/10/08 08:45:02;;;;;;;76.68;72.63;;;;;;;17.88;71.26;101765.91;5013165;28;102300;-51
2022/10/08 08:47:34;;;;;;;78.60;74.50;;;;;;;17.88;71.16;101765.91;5000396;28;102576;-51
2022/10/08 08:50:05;;;;;;;80.03;75.85;;;;;;;17.88;71.25;101765.91;4999977;28;102310;-52
2022/10/08 08:52:36;;;;;;;79.40;75.18;;;;;;;17.90;70.93;101766.44;4997669;28;104029;-52
2022/10/08 08:55:12;;;;;;;84.75;79.45;;;;;;;17.96;68.54;101762.50;5010032;28;102009;-51
2022/10/08 08:57:46;;;;;;;85.50;79.70;;;;;;;18.01;67.69;101754.16;5007897;27;102772;-51
2022/10/08 09:00:17;;;;;;;92.93;87.60;;;;;;;17.94;68.21;101761.97;5009868;28;102258;-50
2022/10/08 09:02:54;;;;;;;89.03;83.55;;;;;;;17.95;68.36;101744.31;5013857;28;104337;-51
2022/10/08 09:05:23;;;;;;;95.47;90.25;;;;;;;17.94;68.63;101742.69;5009750;28;102029;-51
2022/10/08 09:07:54;;;;;;;94.32;88.60;;;;;;;17.96;68.69;101745.19;4999294;28;102243;-51
2022/10/08 09:10:28;;;;;;;91.80;86.18;;;;;;;17.95;68.64;101741.56;5004528;28;102313;-51
2022/10/08 09:12:55;;;;;;;85.93;81.15;;;;;;;17.95;69.14;101736.06;4995222;28;103968;-51
2022/10/08 09:15:31;;;;;;;89.38;84.13;;;;;;;17.94;69.68;101737.19;4999110;28;102143;-51
2022/10/08 09:18:01;;;;;;;89.63;84.15;;;;;;;17.94;69.81;101739.13;5000799;28;102343;-51
2022/10/08 09:20:29;;;;;;;95.57;89.70;;;;;;;17.94;69.53;101737.19;5007707;28;102535;-51
2022/10/08 09:22:56;;;;;;;96.38;90.60;;;;;;;17.95;69.52;101733.31;5012034;28;103009;-51
2022/10/08 09:25:25;;;;;;;98.07;92.75;;;;;;;17.96;69.45;101726.72;5006429;27;102069;-51
2022/10/08 09:27:52;;;;;;;;;;;;;;;17.94;69.15;101720.66;5015023;28;102614;-50
2022/10/08 09:30:31;;;;;;;70.78;66.28;;;;;;;17.95;68.97;101719.53;4977995;28;102540;-50
2022/10/08 09:33:00;;;;;;;81.10;76.18;;;;;;;17.96;69.19;101712.13;4983505;28;103762;-50
2022/10/08 09:35:30;;;;;;;83.90;78.93;;;;;;;17.96;69.21;101717.63;4988221;27;102516;-51
2022/10/08 09:37:56;;;;;;;;;;;;;;;17.94;69.19;101717.09;4982540;28;104037;-51
2022/10/08 09:40:25;;;;;;;61.05;57.25;;;;;;;17.94;69.34;101704.13;5001643;28;102195;-50
2022/10/08 09:43:10;;;;;;;71.57;67.47;;;;;;;17.93;69.56;101705.25;4994303;28;103917;-51
2022/10/08 09:45:43;;;;;;;75.78;71.28;;;;;;;17.95;68.84;101703.00;4981310;28;102572;-51
2022/10/08 09:48:22;;;;;;;81.10;76.63;;;;;;;17.96;68.84;101698.34;4980214;28;102425;-51
2022/10/08 09:50:59;;;;;;;83.53;78.90;;;;;;;17.94;69.12;101690.38;4981734;28;102418;-54
2022/10/08 09:53:31;;;;;;;84.68;79.82;;;;;;;18.01;68.98;101690.81;4989883;28;103953;-51
2022/10/08 09:56:00;;;;;;;84.40;79.22;;;;;;;17.98;69.06;101682.34;4990177;28;102365;-51
2022/10/08 09:58:30;;;;;;;88.72;83.07;;;;;;;17.96;69.02;101685.41;4977203;28;102105;-50
2022/10/08 10:01:14;;;;;;;92.50;86.75;;;;;;;17.95;69.02;101672.72;4984369;28;102403;-50
2022/10/08 10:03:48;;;;;;;86.40;81.50;;;;;;;17.94;69.27;101676.59;4984862;28;104072;-50
2022/10/08 10:06:14;;;;;;;90.05;85.00;;;;;;;17.96;68.74;101679.06;4986504;28;104283;-51
2022/10/08 10:08:52;;;;;;;88.55;83.47;;;;;;;17.93;69.18;101680.47;4978631;28;102178;-51
2022/10/08 10:11:25;;;;;;;87.82;82.72;;;;;;;17.95;69.11;101677.41;4982917;28;102439;-56
2022/10/08 10:13:56;;;;;;;89.00;84.22;;;;;;;17.94;69.19;101668.34;4982024;28;108102;-50
2022/10/08 10:16:35;;;;;;;88.00;83.18;;;;;;;17.95;68.32;101660.88;4987865;28;102202;-50
2022/10/08 10:19:06;;;;;;;84.60;79.97;;;;;;;17.96;67.90;101646.03;4983623;28;102378;-51
2022/10/08 10:21:37;;;;;;;93.78;88.80;;;;;;;17.95;68.86;101650.69;4986016;28;102037;-50
2022/10/08 10:24:33;;;;;;;86.25;81.38;;;;;;;17.94;69.05;101654.56;4993792;28;103937;-50
2022/10/08 10:27:07;;;;;;;85.05;80.40;;;;;;;17.94;68.45;101642.75;4988554;28;102320;-50
2022/10/08 10:29:43;;;;;;;90.55;85.32;;;;;;;17.96;68.48;101641.34;5011824;28;102379;-50
2022/10/08 10:32:16;;;;;;;86.22;81.75;;;;;;;17.96;67.57;101630.31;5002901;28;102483;-50
2022/10/08 10:34:50;;;;;;;89.95;85.10;;;;;;;17.96;67.81;101630.31;5002078;28;104039;-51
2022/10/08 10:37:28;;;;;;;95.22;90.00;;;;;;;17.96;67.90;101615.72;5010475;28;102263;-51
2022/10/08 10:39:59;;;;;;;88.35;83.38;;;;;;;17.93;68.09;101617.13;5002997;28;102176;-50
2022/10/08 10:42:32;;;;;;;93.10;88.07;;;;;;;17.95;67.71;101620.41;5010424;28;102805;-50
2022/10/08 10:45:03;;;;;;;97.03;91.82;;;;;;;17.94;67.49;101609.69;5011630;28;103952;-50
2022/10/08 10:47:33;;;;;;;87.35;82.65;;;;;;;17.93;68.12;101614.38;5008716;28;102167;-50
2022/10/08 10:50:00;;;;;;;90.97;86.15;;;;;;;17.93;67.73;101608.88;5011192;28;102101;-50
2022/10/08 10:52:47;;;;;;;89.93;85.03;;;;;;;17.93;67.64;101606.13;5007304;28;102527;-51
2022/10/08 10:55:26;;;;;;;88.20;83.45;;;;;;;17.92;67.72;101601.75;5002977;28;108134;-50
2022/10/08 10:58:09;;;;;;;;;;;;;;;17.91;67.43;101583.56;5014545;28;102412;-50
2022/10/08 11:00:48;;;;;;;73.68;69.65;;;;;;;17.91;67.57;101591.81;5012207;28;102117;-51
2022/10/08 11:03:26;;;;;;;81.38;76.95;;;;;;;17.90;67.55;101581.94;5008813;28;102291;-50
2022/10/08 11:06:15;;;;;;;87.27;82.50;;;;;;;17.92;67.76;101582.47;5001533;28;104015;-50
2022/10/08 11:08:51;;;;;;;87.15;82.07;;;;;;;17.90;67.35;101581.13;5001456;28;102314;-50
2022/10/08 11:11:24;;;;;;;89.30;84.57;;;;;;;17.90;67.09;101576.41;4997151;28;102412;-51
2022/10/08 11:14:07;;;;;;;91.50;86.57;;;;;;;17.89;67.08;101562.97;4999163;27;102373;-51
2022/10/08 11:16:44;;;;;;;92.15;87.18;;;;;;;17.90;67.36;101559.91;4999811;28;104086;-50
2022/10/08 11:19:25;;;;;;;89.83;85.07;;;;;;;17.88;67.39;101556.63;4998964;28;102712;-50